sensor_id;sensor_type;location;lat;lon;timestamp;P1;durP1;ratioP1;P2;durP2;ratioP2
3949;SDS011;53057;50.988;6.314;2023-02-03T00:01:48;11.43;;;6.63;;
3949;SDS011;53057;50.988;6.314;2023-02-03T00:04:15;18.20;;;6.70;;
3949;SDS011;53057;50.988;6.314;2023-02-03T00:06:43;17.63;;;7.80;;
3949;SDS011;53057;50.988;6.314;2023-02-03T00:09:10;9.13;;;6.33;;
3949;SDS011;53057;50.988;6.314;2023-02-03T00:11:37;14.23;;;6.57;;
3949;SDS011;53057;50.988;6.314;2023-02-03T00:14:03;10.50;;;5.90;;
3949;SDS011;53057;50.988;6.314;2023-02-03T00:16:30;12.23;;;6.10;;
3949;SDS011;53057;50.988;6.314;2023-02-03T00:18:57;17.43;;;6.63;;
3949;SDS011;53057;50.988;6.314;2023-02-03T00:21:23;7.93;;;4.00;;
3949;SDS011;53057;50.988;6.314;2023-02-03T00:23:50;15.63;;;6.43;;
3949;SDS011;53057;50.988;6.314;2023-02-03T00:26:17;20.77;;;7.43;;
3949;SDS011;53057;50.988;6.314;2023-02-03T00:28:44;27.43;;;7.60;;
3949;SDS011;53057;50.988;6.314;2023-02-03T00:31:18;18.37;;;7.00;;
3949;SDS011;53057;50.988;6.314;2023-02-03T00:33:45;15.80;;;6.57;;
3949;SDS011;53057;50.988;6.314;2023-02-03T00:36:12;10.10;;;5.00;;
3949;SDS011;53057;50.988;6.314;2023-02-03T00:38:39;9.43;;;6.00;;
3949;SDS011;53057;50.988;6.314;2023-02-03T00:41:06;18.83;;;5.67;;
3949;SDS011;53057;50.988;6.314;2023-02-03T00:43:33;7.60;;;6.13;;
3949;SDS011;53057;50.988;6.314;2023-02-03T00:45:59;20.90;;;5.57;;
3949;SDS011;53057;50.988;6.314;2023-02-03T00:48:26;26.10;;;6.90;;
3949;SDS011;53057;50.988;6.314;2023-02-03T00:50:53;13.97;;;5.40;;
3949;SDS011;53057;50.988;6.314;2023-02-03T00:53:20;8.43;;;3.67;;
3949;SDS011;53057;50.988;6.314;2023-02-03T00:55:46;10.80;;;5.07;;
3949;SDS011;53057;50.988;6.314;2023-02-03T00:58:13;19.80;;;7.70;;
3949;SDS011;53057;50.988;6.314;2023-02-03T01:00:39;20.97;;;5.57;;
3949;SDS011;53057;50.988;6.314;2023-02-03T01:03:06;15.20;;;6.17;;
3949;SDS011;53057;50.988;6.314;2023-02-03T01:05:33;11.73;;;5.00;;
3949;SDS011;53057;50.988;6.314;2023-02-03T01:07:59;12.80;;;4.40;;
3949;SDS011;53057;50.988;6.314;2023-02-03T01:10:26;17.40;;;5.50;;
3949;SDS011;53057;50.988;6.314;2023-02-03T01:12:53;10.20;;;5.50;;
3949;SDS011;53057;50.988;6.314;2023-02-03T01:15:20;10.50;;;5.13;;
3949;SDS011;53057;50.988;6.314;2023-02-03T01:17:47;17.07;;;6.13;;
3949;SDS011;53057;50.988;6.314;2023-02-03T01:20:13;11.40;;;5.37;;
3949;SDS011;53057;50.988;6.314;2023-02-03T01:22:42;22.93;;;6.23;;
3949;SDS011;53057;50.988;6.314;2023-02-03T01:25:08;7.83;;;5.40;;
3949;SDS011;53057;50.988;6.314;2023-02-03T01:27:36;12.50;;;5.03;;
3949;SDS011;53057;50.988;6.314;2023-02-03T01:30:03;13.07;;;5.70;;
3949;SDS011;53057;50.988;6.314;2023-02-03T01:32:29;7.53;;;4.17;;
3949;SDS011;53057;50.988;6.314;2023-02-03T01:34:56;15.47;;;4.87;;
3949;SDS011;53057;50.988;6.314;2023-02-03T01:37:23;12.10;;;3.73;;
3949;SDS011;53057;50.988;6.314;2023-02-03T01:39:49;20.70;;;6.23;;
3949;SDS011;53057;50.988;6.314;2023-02-03T01:42:16;10.87;;;4.73;;
3949;SDS011;53057;50.988;6.314;2023-02-03T01:47:21;11.30;;;4.53;;
3949;SDS011;53057;50.988;6.314;2023-02-03T01:49:52;15.33;;;5.33;;
3949;SDS011;53057;50.988;6.314;2023-02-03T01:52:20;18.13;;;3.93;;
3949;SDS011;53057;50.988;6.314;2023-02-03T01:54:47;14.00;;;5.40;;
3949;SDS011;53057;50.988;6.314;2023-02-03T01:57:17;10.43;;;5.50;;
3949;SDS011;53057;50.988;6.314;2023-02-03T01:59:45;14.23;;;6.57;;
3949;SDS011;53057;50.988;6.314;2023-02-03T02:02:12;13.23;;;5.40;;
3949;SDS011;53057;50.988;6.314;2023-02-03T02:04:49;12.40;;;5.77;;
3949;SDS011;53057;50.988;6.314;2023-02-03T02:07:17;7.00;;;3.97;;
3949;SDS011;53057;50.988;6.314;2023-02-03T02:09:44;19.07;;;7.00;;
3949;SDS011;53057;50.988;6.314;2023-02-03T02:12:11;12.57;;;5.30;;
3949;SDS011;53057;50.988;6.314;2023-02-03T02:14:38;5.73;;;3.80;;
3949;SDS011;53057;50.988;6.314;2023-02-03T02:17:07;18.57;;;5.43;;
3949;SDS011;53057;50.988;6.314;2023-02-03T02:22:49;12.50;;;5.57;;
3949;SDS011;53057;50.988;6.314;2023-02-03T02:33:05;18.53;;;6.67;;
3949;SDS011;53057;50.988;6.314;2023-02-03T02:40:55;8.80;;;5.37;;
3949;SDS011;53057;50.988;6.314;2023-02-03T02:43:27;18.00;;;6.40;;
3949;SDS011;53057;50.988;6.314;2023-02-03T02:46:40;13.67;;;5.77;;
3949;SDS011;53057;50.988;6.314;2023-02-03T02:48:49;19.13;;;5.53;;
3949;SDS011;53057;50.988;6.314;2023-02-03T02:51:17;13.70;;;5.90;;
3949;SDS011;53057;50.988;6.314;2023-02-03T02:53:49;11.13;;;5.97;;
3949;SDS011;53057;50.988;6.314;2023-02-03T02:56:18;8.37;;;4.17;;
3949;SDS011;53057;50.988;6.314;2023-02-03T02:58:47;12.90;;;4.00;;
3949;SDS011;53057;50.988;6.314;2023-02-03T03:01:15;13.70;;;5.87;;
3949;SDS011;53057;50.988;6.314;2023-02-03T03:03:42;18.17;;;6.20;;
3949;SDS011;53057;50.988;6.314;2023-02-03T03:06:12;12.30;;;7.40;;
3949;SDS011;53057;50.988;6.314;2023-02-03T03:08:45;20.53;;;4.80;;
3949;SDS011;53057;50.988;6.314;2023-02-03T03:11:13;14.33;;;6.50;;
3949;SDS011;53057;50.988;6.314;2023-02-03T03:13:41;12.60;;;6.20;;
3949;SDS011;53057;50.988;6.314;2023-02-03T03:16:09;11.00;;;5.13;;
3949;SDS011;53057;50.988;6.314;2023-02-03T03:21:35;19.03;;;6.33;;
3949;SDS011;53057;50.988;6.314;2023-02-03T03:24:04;11.50;;;5.57;;
3949;SDS011;53057;50.988;6.314;2023-02-03T03:26:40;12.73;;;5.20;;
3949;SDS011;53057;50.988;6.314;2023-02-03T03:29:19;17.50;;;5.53;;
3949;SDS011;53057;50.988;6.314;2023-02-03T03:31:47;12.43;;;4.03;;
3949;SDS011;53057;50.988;6.314;2023-02-03T03:34:14;12.13;;;5.10;;
3949;SDS011;53057;50.988;6.314;2023-02-03T03:36:45;13.73;;;5.67;;
3949;SDS011;53057;50.988;6.314;2023-02-03T03:39:19;13.27;;;5.00;;
3949;SDS011;53057;50.988;6.314;2023-02-03T03:42:09;17.73;;;5.00;;
3949;SDS011;53057;50.988;6.314;2023-02-03T03:44:51;10.83;;;6.40;;
3949;SDS011;53057;50.988;6.314;2023-02-03T03:47:20;11.87;;;5.17;;
3949;SDS011;53057;50.988;6.314;2023-02-03T03:49:50;12.10;;;5.00;;
3949;SDS011;53057;50.988;6.314;2023-02-03T03:52:19;9.67;;;4.37;;
3949;SDS011;53057;50.988;6.314;2023-02-03T03:54:47;9.40;;;3.90;;
3949;SDS011;53057;50.988;6.314;2023-02-03T03:57:17;13.10;;;6.00;;
3949;SDS011;53057;50.988;6.314;2023-02-03T03:59:45;14.93;;;4.90;;
3949;SDS011;53057;50.988;6.314;2023-02-03T04:02:12;11.57;;;5.60;;
3949;SDS011;53057;50.988;6.314;2023-02-03T04:04:39;12.97;;;4.37;;
3949;SDS011;53057;50.988;6.314;2023-02-03T04:07:07;10.90;;;4.23;;
3949;SDS011;53057;50.988;6.314;2023-02-03T04:09:33;17.17;;;5.00;;
3949;SDS011;53057;50.988;6.314;2023-02-03T04:12:02;16.83;;;5.60;;
3949;SDS011;53057;50.988;6.314;2023-02-03T04:14:35;9.63;;;5.10;;
3949;SDS011;53057;50.988;6.314;2023-02-03T04:17:04;10.93;;;4.83;;
3949;SDS011;53057;50.988;6.314;2023-02-03T04:19:31;12.93;;;4.80;;
3949;SDS011;53057;50.988;6.314;2023-02-03T04:21:57;15.47;;;4.60;;
3949;SDS011;53057;50.988;6.314;2023-02-03T04:24:24;13.67;;;4.30;;
3949;SDS011;53057;50.988;6.314;2023-02-03T04:26:50;16.10;;;5.73;;
3949;SDS011;53057;50.988;6.314;2023-02-03T04:29:17;8.43;;;4.30;;
3949;SDS011;53057;50.988;6.314;2023-02-03T04:31:44;11.23;;;4.43;;
3949;SDS011;53057;50.988;6.314;2023-02-03T04:34:11;13.03;;;3.93;;
3949;SDS011;53057;50.988;6.314;2023-02-03T04:36:37;9.90;;;4.77;;
3949;SDS011;53057;50.988;6.314;2023-02-03T04:39:04;12.30;;;4.33;;
3949;SDS011;53057;50.988;6.314;2023-02-03T04:41:31;27.07;;;4.37;;
3949;SDS011;53057;50.988;6.314;2023-02-03T04:43:57;7.23;;;4.00;;
3949;SDS011;53057;50.988;6.314;2023-02-03T04:46:24;7.83;;;4.67;;
3949;SDS011;53057;50.988;6.314;2023-02-03T04:48:50;4.67;;;3.33;;
3949;SDS011;53057;50.988;6.314;2023-02-03T04:51:17;11.83;;;4.03;;
3949;SDS011;53057;50.988;6.314;2023-02-03T04:53:44;3.83;;;3.10;;
3949;SDS011;53057;50.988;6.314;2023-02-03T04:56:10;4.47;;;2.77;;
3949;SDS011;53057;50.988;6.314;2023-02-03T04:58:37;19.43;;;4.13;;
3949;SDS011;53057;50.988;6.314;2023-02-03T05:01:04;16.73;;;3.80;;
3949;SDS011;53057;50.988;6.314;2023-02-03T05:03:31;10.03;;;3.33;;
3949;SDS011;53057;50.988;6.314;2023-02-03T05:05:58;7.13;;;3.07;;
3949;SDS011;53057;50.988;6.314;2023-02-03T05:08:25;8.53;;;3.10;;
3949;SDS011;53057;50.988;6.314;2023-02-03T05:10:51;10.67;;;3.90;;
3949;SDS011;53057;50.988;6.314;2023-02-03T05:13:18;8.67;;;3.00;;
3949;SDS011;53057;50.988;6.314;2023-02-03T05:15:44;11.73;;;3.53;;
3949;SDS011;53057;50.988;6.314;2023-02-03T05:18:11;13.70;;;3.90;;
3949;SDS011;53057;50.988;6.314;2023-02-03T05:20:37;10.67;;;4.30;;
3949;SDS011;53057;50.988;6.314;2023-02-03T05:23:04;11.40;;;3.00;;
3949;SDS011;53057;50.988;6.314;2023-02-03T05:25:31;11.73;;;2.73;;
3949;SDS011;53057;50.988;6.314;2023-02-03T05:27:57;7.67;;;2.50;;
3949;SDS011;53057;50.988;6.314;2023-02-03T05:30:24;11.67;;;2.77;;
3949;SDS011;53057;50.988;6.314;2023-02-03T05:32:51;12.93;;;3.40;;
3949;SDS011;53057;50.988;6.314;2023-02-03T05:35:18;13.33;;;3.60;;
3949;SDS011;53057;50.988;6.314;2023-02-03T05:37:45;10.60;;;3.60;;
3949;SDS011;53057;50.988;6.314;2023-02-03T05:40:12;6.83;;;2.90;;
3949;SDS011;53057;50.988;6.314;2023-02-03T05:42:57;30.10;;;3.37;;
3949;SDS011;53057;50.988;6.314;2023-02-03T05:45:23;7.23;;;2.33;;
3949;SDS011;53057;50.988;6.314;2023-02-03T05:47:50;4.73;;;1.53;;
3949;SDS011;53057;50.988;6.314;2023-02-03T05:50:17;8.17;;;2.10;;
3949;SDS011;53057;50.988;6.314;2023-02-03T05:52:44;6.70;;;2.57;;
3949;SDS011;53057;50.988;6.314;2023-02-03T05:55:11;10.13;;;3.47;;
3949;SDS011;53057;50.988;6.314;2023-02-03T05:57:38;7.13;;;1.73;;
3949;SDS011;53057;50.988;6.314;2023-02-03T06:00:05;10.80;;;2.40;;
3949;SDS011;53057;50.988;6.314;2023-02-03T06:02:36;15.70;;;2.77;;
3949;SDS011;53057;50.988;6.314;2023-02-03T06:05:03;5.07;;;2.23;;
3949;SDS011;53057;50.988;6.314;2023-02-03T06:07:30;10.40;;;2.93;;
3949;SDS011;53057;50.988;6.314;2023-02-03T06:09:57;12.00;;;2.90;;
3949;SDS011;53057;50.988;6.314;2023-02-03T06:12:23;18.73;;;3.07;;
3949;SDS011;53057;50.988;6.314;2023-02-03T06:14:53;10.30;;;3.03;;
3949;SDS011;53057;50.988;6.314;2023-02-03T06:17:20;11.90;;;2.80;;
3949;SDS011;53057;50.988;6.314;2023-02-03T06:19:46;12.67;;;3.80;;
3949;SDS011;53057;50.988;6.314;2023-02-03T06:22:13;10.80;;;3.33;;
3949;SDS011;53057;50.988;6.314;2023-02-03T06:24:39;3.67;;;1.90;;
3949;SDS011;53057;50.988;6.314;2023-02-03T06:27:06;5.23;;;2.57;;
3949;SDS011;53057;50.988;6.314;2023-02-03T06:29:32;13.33;;;3.10;;
3949;SDS011;53057;50.988;6.314;2023-02-03T06:31:59;10.57;;;2.67;;
3949;SDS011;53057;50.988;6.314;2023-02-03T06:34:26;15.13;;;2.00;;
3949;SDS011;53057;50.988;6.314;2023-02-03T06:36:52;11.93;;;2.70;;
3949;SDS011;53057;50.988;6.314;2023-02-03T06:39:19;7.77;;;2.30;;
3949;SDS011;53057;50.988;6.314;2023-02-03T06:41:46;6.53;;;2.33;;
3949;SDS011;53057;50.988;6.314;2023-02-03T06:44:12;8.17;;;2.07;;
3949;SDS011;53057;50.988;6.314;2023-02-03T06:46:39;8.67;;;3.60;;
3949;SDS011;53057;50.988;6.314;2023-02-03T06:49:05;9.20;;;2.30;;
3949;SDS011;53057;50.988;6.314;2023-02-03T06:51:32;10.03;;;2.63;;
3949;SDS011;53057;50.988;6.314;2023-02-03T06:53:58;4.57;;;2.47;;
3949;SDS011;53057;50.988;6.314;2023-02-03T06:56:25;10.50;;;3.23;;
3949;SDS011;53057;50.988;6.314;2023-02-03T06:58:52;11.37;;;2.13;;
3949;SDS011;53057;50.988;6.314;2023-02-03T07:01:19;4.77;;;1.53;;
3949;SDS011;53057;50.988;6.314;2023-02-03T07:03:45;8.67;;;2.23;;
3949;SDS011;53057;50.988;6.314;2023-02-03T07:06:12;6.50;;;2.47;;
3949;SDS011;53057;50.988;6.314;2023-02-03T07:08:39;7.93;;;2.47;;
3949;SDS011;53057;50.988;6.314;2023-02-03T07:11:07;7.00;;;1.67;;
3949;SDS011;53057;50.988;6.314;2023-02-03T07:13:33;6.17;;;1.70;;
3949;SDS011;53057;50.988;6.314;2023-02-03T07:16:00;5.67;;;1.90;;
3949;SDS011;53057;50.988;6.314;2023-02-03T07:18:27;7.67;;;2.00;;
3949;SDS011;53057;50.988;6.314;2023-02-03T07:21:12;17.00;;;2.40;;
3949;SDS011;53057;50.988;6.314;2023-02-03T07:23:39;3.80;;;1.87;;
3949;SDS011;53057;50.988;6.314;2023-02-03T07:26:06;10.87;;;2.20;;
3949;SDS011;53057;50.988;6.314;2023-02-03T07:28:33;10.53;;;1.80;;
3949;SDS011;53057;50.988;6.314;2023-02-03T07:31:00;5.27;;;1.53;;
3949;SDS011;53057;50.988;6.314;2023-02-03T07:33:27;11.43;;;1.97;;
3949;SDS011;53057;50.988;6.314;2023-02-03T07:35:54;8.50;;;1.77;;
3949;SDS011;53057;50.988;6.314;2023-02-03T07:38:21;5.27;;;1.30;;
3949;SDS011;53057;50.988;6.314;2023-02-03T07:40:48;6.53;;;1.83;;
3949;SDS011;53057;50.988;6.314;2023-02-03T07:43:14;5.90;;;2.37;;
3949;SDS011;53057;50.988;6.314;2023-02-03T07:45:41;2.63;;;2.03;;
3949;SDS011;53057;50.988;6.314;2023-02-03T07:48:07;8.70;;;3.10;;
3949;SDS011;53057;50.988;6.314;2023-02-03T07:50:34;9.23;;;2.00;;
3949;SDS011;53057;50.988;6.314;2023-02-03T07:53:01;7.10;;;1.77;;
3949;SDS011;53057;50.988;6.314;2023-02-03T07:55:27;8.40;;;1.67;;
3949;SDS011;53057;50.988;6.314;2023-02-03T07:57:55;6.63;;;1.53;;
3949;SDS011;53057;50.988;6.314;2023-02-03T08:00:22;5.10;;;1.67;;
3949;SDS011;53057;50.988;6.314;2023-02-03T08:02:49;9.13;;;1.70;;
3949;SDS011;53057;50.988;6.314;2023-02-03T08:05:16;13.33;;;4.87;;
3949;SDS011;53057;50.988;6.314;2023-02-03T08:07:44;13.63;;;1.70;;
3949;SDS011;53057;50.988;6.314;2023-02-03T08:10:11;6.63;;;2.30;;
3949;SDS011;53057;50.988;6.314;2023-02-03T08:12:38;13.57;;;2.80;;
3949;SDS011;53057;50.988;6.314;2023-02-03T08:15:05;5.87;;;3.10;;
3949;SDS011;53057;50.988;6.314;2023-02-03T08:17:31;7.77;;;1.37;;
3949;SDS011;53057;50.988;6.314;2023-02-03T08:20:01;21.23;;;4.87;;
3949;SDS011;53057;50.988;6.314;2023-02-03T08:22:28;7.53;;;2.57;;
3949;SDS011;53057;50.988;6.314;2023-02-03T08:24:54;5.10;;;2.20;;
3949;SDS011;53057;50.988;6.314;2023-02-03T08:27:21;14.47;;;5.33;;
3949;SDS011;53057;50.988;6.314;2023-02-03T08:29:48;13.17;;;4.47;;
3949;SDS011;53057;50.988;6.314;2023-02-03T08:32:16;5.70;;;1.83;;
3949;SDS011;53057;50.988;6.314;2023-02-03T08:34:44;14.97;;;6.57;;
3949;SDS011;53057;50.988;6.314;2023-02-03T08:37:11;7.10;;;2.83;;
3949;SDS011;53057;50.988;6.314;2023-02-03T08:39:38;5.03;;;2.60;;
3949;SDS011;53057;50.988;6.314;2023-02-03T08:42:05;12.43;;;1.40;;
3949;SDS011;53057;50.988;6.314;2023-02-03T08:44:32;6.67;;;2.63;;
3949;SDS011;53057;50.988;6.314;2023-02-03T08:46:59;6.00;;;2.27;;
3949;SDS011;53057;50.988;6.314;2023-02-03T08:49:26;4.77;;;1.60;;
3949;SDS011;53057;50.988;6.314;2023-02-03T08:51:53;8.60;;;2.77;;
3949;SDS011;53057;50.988;6.314;2023-02-03T08:54:20;5.57;;;1.67;;
3949;SDS011;53057;50.988;6.314;2023-02-03T08:56:47;3.87;;;1.43;;
3949;SDS011;53057;50.988;6.314;2023-02-03T08:59:14;14.80;;;2.27;;
3949;SDS011;53057;50.988;6.314;2023-02-03T09:01:40;2.83;;;1.40;;
3949;SDS011;53057;50.988;6.314;2023-02-03T09:04:10;5.63;;;1.90;;
3949;SDS011;53057;50.988;6.314;2023-02-03T09:06:37;9.90;;;2.37;;
3949;SDS011;53057;50.988;6.314;2023-02-03T09:09:04;6.40;;;2.60;;
3949;SDS011;53057;50.988;6.314;2023-02-03T09:11:30;8.73;;;2.90;;
3949;SDS011;53057;50.988;6.314;2023-02-03T09:13:57;5.43;;;2.43;;
3949;SDS011;53057;50.988;6.314;2023-02-03T09:16:24;6.40;;;4.23;;
3949;SDS011;53057;50.988;6.314;2023-02-03T09:18:50;10.47;;;3.20;;
3949;SDS011;53057;50.988;6.314;2023-02-03T09:21:17;5.43;;;2.30;;
3949;SDS011;53057;50.988;6.314;2023-02-03T09:23:59;14.27;;;3.00;;
3949;SDS011;53057;50.988;6.314;2023-02-03T09:26:27;12.63;;;3.40;;
3949;SDS011;53057;50.988;6.314;2023-02-03T09:28:54;3.83;;;1.80;;
3949;SDS011;53057;50.988;6.314;2023-02-03T09:31:20;8.23;;;2.60;;
3949;SDS011;53057;50.988;6.314;2023-02-03T09:33:47;8.20;;;2.50;;
3949;SDS011;53057;50.988;6.314;2023-02-03T09:36:14;9.07;;;2.30;;
3949;SDS011;53057;50.988;6.314;2023-02-03T09:38:40;4.97;;;1.90;;
3949;SDS011;53057;50.988;6.314;2023-02-03T09:46:26;3.83;;;1.40;;
3949;SDS011;53057;50.988;6.314;2023-02-03T09:48:57;8.20;;;2.37;;
3949;SDS011;53057;50.988;6.314;2023-02-03T09:51:36;7.90;;;2.47;;
3949;SDS011;53057;50.988;6.314;2023-02-03T09:56:33;6.10;;;2.87;;
3949;SDS011;53057;50.988;6.314;2023-02-03T09:59:00;12.33;;;2.87;;
3949;SDS011;53057;50.988;6.314;2023-02-03T10:01:35;8.53;;;3.00;;
3949;SDS011;53057;50.988;6.314;2023-02-03T10:04:05;6.07;;;3.07;;
3949;SDS011;53057;50.988;6.314;2023-02-03T10:06:35;5.33;;;3.00;;
3949;SDS011;53057;50.988;6.314;2023-02-03T10:09:18;7.07;;;3.77;;
3949;SDS011;53057;50.988;6.314;2023-02-03T10:14:38;7.63;;;3.63;;
3949;SDS011;53057;50.988;6.314;2023-02-03T10:17:24;8.80;;;3.47;;
3949;SDS011;53057;50.988;6.314;2023-02-03T10:20:00;7.40;;;3.80;;
3949;SDS011;53057;50.988;6.314;2023-02-03T10:22:28;23.13;;;12.87;;
3949;SDS011;53057;50.988;6.314;2023-02-03T10:27:42;18.63;;;4.20;;
3949;SDS011;53057;50.988;6.314;2023-02-03T10:30:25;18.07;;;4.40;;
3949;SDS011;53057;50.988;6.314;2023-02-03T10:32:54;9.50;;;3.90;;
3949;SDS011;53057;50.988;6.314;2023-02-03T10:35:22;10.03;;;4.13;;
3949;SDS011;53057;50.988;6.314;2023-02-03T10:37:52;9.53;;;4.57;;
3949;SDS011;53057;50.988;6.314;2023-02-03T10:40:23;8.70;;;5.90;;
3949;SDS011;53057;50.988;6.314;2023-02-03T10:42:51;8.47;;;4.20;;
3949;SDS011;53057;50.988;6.314;2023-02-03T10:45:37;16.63;;;4.93;;
3949;SDS011;53057;50.988;6.314;2023-02-03T10:48:04;15.70;;;5.53;;
3949;SDS011;53057;50.988;6.314;2023-02-03T10:50:32;13.77;;;5.77;;
3949;SDS011;53057;50.988;6.314;2023-02-03T10:55:45;15.63;;;6.50;;
3949;SDS011;53057;50.988;6.314;2023-02-03T10:58:22;12.73;;;7.03;;
3949;SDS011;53057;50.988;6.314;2023-02-03T11:01:12;11.70;;;5.10;;
3949;SDS011;53057;50.988;6.314;2023-02-03T11:03:37;6.03;;;4.17;;
3949;SDS011;53057;50.988;6.314;2023-02-03T11:08:33;11.60;;;5.10;;
3949;SDS011;53057;50.988;6.314;2023-02-03T11:11:08;14.00;;;8.17;;
3949;SDS011;53057;50.988;6.314;2023-02-03T11:13:35;15.20;;;6.40;;
3949;SDS011;53057;50.988;6.314;2023-02-03T11:16:02;16.70;;;8.50;;
3949;SDS011;53057;50.988;6.314;2023-02-03T11:18:41;12.73;;;7.90;;
3949;SDS011;53057;50.988;6.314;2023-02-03T11:21:13;13.33;;;7.27;;
3949;SDS011;53057;50.988;6.314;2023-02-03T11:23:51;16.23;;;8.27;;
3949;SDS011;53057;50.988;6.314;2023-02-03T11:26:21;13.53;;;6.57;;
3949;SDS011;53057;50.988;6.314;2023-02-03T11:28:49;9.27;;;7.90;;
3949;SDS011;53057;50.988;6.314;2023-02-03T11:31:17;15.20;;;9.00;;
3949;SDS011;53057;50.988;6.314;2023-02-03T11:33:46;11.23;;;8.00;;
3949;SDS011;53057;50.988;6.314;2023-02-03T11:36:13;13.47;;;5.60;;
3949;SDS011;53057;50.988;6.314;2023-02-03T11:38:40;18.83;;;10.70;;
3949;SDS011;53057;50.988;6.314;2023-02-03T11:41:19;15.20;;;8.17;;
3949;SDS011;53057;50.988;6.314;2023-02-03T11:43:50;13.97;;;8.40;;
3949;SDS011;53057;50.988;6.314;2023-02-03T11:46:21;15.27;;;7.40;;
3949;SDS011;53057;50.988;6.314;2023-02-03T11:56:30;11.57;;;7.67;;
3949;SDS011;53057;50.988;6.314;2023-02-03T12:01:41;13.87;;;8.60;;
3949;SDS011;53057;50.988;6.314;2023-02-03T12:09:32;17.33;;;8.23;;
3949;SDS011;53057;50.988;6.314;2023-02-03T12:22:12;24.67;;;11.47;;
3949;SDS011;53057;50.988;6.314;2023-02-03T12:29:52;12.20;;;10.73;;
3949;SDS011;53057;50.988;6.314;2023-02-03T12:34:52;13.50;;;9.83;;
3949;SDS011;53057;50.988;6.314;2023-02-03T12:39:57;16.70;;;9.80;;
3949;SDS011;53057;50.988;6.314;2023-02-03T12:42:30;20.10;;;10.57;;
3949;SDS011;53057;50.988;6.314;2023-02-03T12:44:58;15.13;;;9.23;;
3949;SDS011;53057;50.988;6.314;2023-02-03T12:49:58;16.33;;;10.53;;
3949;SDS011;53057;50.988;6.314;2023-02-03T12:52:28;15.40;;;10.40;;
3949;SDS011;53057;50.988;6.314;2023-02-03T13:00:10;26.23;;;11.83;;
3949;SDS011;53057;50.988;6.314;2023-02-03T13:02:51;16.77;;;8.70;;
3949;SDS011;53057;50.988;6.314;2023-02-03T13:05:27;17.70;;;11.27;;
3949;SDS011;53057;50.988;6.314;2023-02-03T13:08:00;21.87;;;10.83;;
3949;SDS011;53057;50.988;6.314;2023-02-03T13:10:36;13.67;;;10.47;;
3949;SDS011;53057;50.988;6.314;2023-02-03T13:13:07;15.17;;;10.80;;
3949;SDS011;53057;50.988;6.314;2023-02-03T13:15:36;20.03;;;10.40;;
3949;SDS011;53057;50.988;6.314;2023-02-03T13:20:31;13.57;;;11.50;;
3949;SDS011;53057;50.988;6.314;2023-02-03T13:23:05;21.67;;;11.20;;
3949;SDS011;53057;50.988;6.314;2023-02-03T13:30:59;20.63;;;9.57;;
3949;SDS011;53057;50.988;6.314;2023-02-03T13:36:04;20.73;;;11.40;;
3949;SDS011;53057;50.988;6.314;2023-02-03T13:41:18;20.57;;;12.37;;
3949;SDS011;53057;50.988;6.314;2023-02-03T13:43:48;17.67;;;11.37;;
3949;SDS011;53057;50.988;6.314;2023-02-03T13:46:26;17.47;;;11.33;;
3949;SDS011;53057;50.988;6.314;2023-02-03T13:48:55;14.30;;;9.73;;
3949;SDS011;53057;50.988;6.314;2023-02-03T13:51:24;25.27;;;13.93;;
3949;SDS011;53057;50.988;6.314;2023-02-03T13:53:58;17.30;;;13.20;;
3949;SDS011;53057;50.988;6.314;2023-02-03T13:56:26;20.63;;;13.80;;
3949;SDS011;53057;50.988;6.314;2023-02-03T14:01:30;28.97;;;10.90;;
3949;SDS011;53057;50.988;6.314;2023-02-03T14:03:59;14.60;;;9.07;;
3949;SDS011;53057;50.988;6.314;2023-02-03T14:11:51;21.33;;;10.07;;
3949;SDS011;53057;50.988;6.314;2023-02-03T14:16:48;14.53;;;10.70;;
3949;SDS011;53057;50.988;6.314;2023-02-03T14:21:48;14.33;;;8.50;;
3949;SDS011;53057;50.988;6.314;2023-02-03T14:24:17;15.77;;;8.70;;
3949;SDS011;53057;50.988;6.314;2023-02-03T14:26:44;17.90;;;9.50;;
3949;SDS011;53057;50.988;6.314;2023-02-03T14:29:22;18.30;;;8.63;;
3949;SDS011;53057;50.988;6.314;2023-02-03T14:31:51;19.50;;;7.70;;
3949;SDS011;53057;50.988;6.314;2023-02-03T14:34:23;14.30;;;6.90;;
3949;SDS011;53057;50.988;6.314;2023-02-03T14:36:52;10.67;;;7.27;;
3949;SDS011;53057;50.988;6.314;2023-02-03T14:44:49;18.47;;;6.97;;
3949;SDS011;53057;50.988;6.314;2023-02-03T14:47:26;9.63;;;8.70;;
3949;SDS011;53057;50.988;6.314;2023-02-03T14:50:03;25.90;;;12.03;;
3949;SDS011;53057;50.988;6.314;2023-02-03T14:55:24;11.57;;;5.20;;
3949;SDS011;53057;50.988;6.314;2023-02-03T14:57:54;22.70;;;9.37;;
3949;SDS011;53057;50.988;6.314;2023-02-03T15:05:40;13.63;;;6.90;;
3949;SDS011;53057;50.988;6.314;2023-02-03T15:10:53;6.40;;;5.07;;
3949;SDS011;53057;50.988;6.314;2023-02-03T15:13:29;14.10;;;10.23;;
3949;SDS011;53057;50.988;6.314;2023-02-03T15:15:57;19.53;;;6.03;;
3949;SDS011;53057;50.988;6.314;2023-02-03T15:18:33;8.50;;;4.30;;
3949;SDS011;53057;50.988;6.314;2023-02-03T15:21:01;30.97;;;11.57;;
3949;SDS011;53057;50.988;6.314;2023-02-03T15:23:29;10.30;;;5.93;;
3949;SDS011;53057;50.988;6.314;2023-02-03T15:25:58;14.90;;;7.70;;
3949;SDS011;53057;50.988;6.314;2023-02-03T15:28:25;14.23;;;6.97;;
3949;SDS011;53057;50.988;6.314;2023-02-03T15:31:05;21.90;;;11.10;;
3949;SDS011;53057;50.988;6.314;2023-02-03T15:33:33;22.07;;;11.40;;
3949;SDS011;53057;50.988;6.314;2023-02-03T15:36:03;16.97;;;9.87;;
3949;SDS011;53057;50.988;6.314;2023-02-03T15:38:36;10.30;;;8.03;;
3949;SDS011;53057;50.988;6.314;2023-02-03T15:41:05;11.63;;;5.60;;
3949;SDS011;53057;50.988;6.314;2023-02-03T15:43:37;20.50;;;8.40;;
3949;SDS011;53057;50.988;6.314;2023-02-03T15:46:15;13.57;;;4.90;;
3949;SDS011;53057;50.988;6.314;2023-02-03T15:48:49;14.33;;;5.90;;
3949;SDS011;53057;50.988;6.314;2023-02-03T15:51:25;12.00;;;5.23;;
3949;SDS011;53057;50.988;6.314;2023-02-03T15:56:49;18.83;;;8.57;;
3949;SDS011;53057;50.988;6.314;2023-02-03T15:59:35;9.23;;;7.00;;
3949;SDS011;53057;50.988;6.314;2023-02-03T16:02:14;15.40;;;8.90;;
3949;SDS011;53057;50.988;6.314;2023-02-03T16:04:42;8.70;;;7.33;;
3949;SDS011;53057;50.988;6.314;2023-02-03T16:07:14;14.90;;;5.53;;
3949;SDS011;53057;50.988;6.314;2023-02-03T16:09:42;12.57;;;7.17;;
3949;SDS011;53057;50.988;6.314;2023-02-03T16:12:16;22.73;;;13.50;;
3949;SDS011;53057;50.988;6.314;2023-02-03T16:14:43;18.07;;;7.23;;
3949;SDS011;53057;50.988;6.314;2023-02-03T16:17:30;12.13;;;6.73;;
3949;SDS011;53057;50.988;6.314;2023-02-03T16:22:41;14.40;;;9.77;;
3949;SDS011;53057;50.988;6.314;2023-02-03T16:25:12;13.40;;;7.93;;
3949;SDS011;53057;50.988;6.314;2023-02-03T16:27:39;27.40;;;11.63;;
3949;SDS011;53057;50.988;6.314;2023-02-03T16:33:11;11.23;;;8.37;;
3949;SDS011;53057;50.988;6.314;2023-02-03T16:36:00;20.40;;;10.47;;
3949;SDS011;53057;50.988;6.314;2023-02-03T16:41:31;28.73;;;9.03;;
3949;SDS011;53057;50.988;6.314;2023-02-03T16:44:16;22.83;;;11.47;;
3949;SDS011;53057;50.988;6.314;2023-02-03T16:47:02;18.83;;;9.17;;
3949;SDS011;53057;50.988;6.314;2023-02-03T16:49:48;17.27;;;8.67;;
3949;SDS011;53057;50.988;6.314;2023-02-03T16:52:33;19.53;;;10.13;;
3949;SDS011;53057;50.988;6.314;2023-02-03T16:55:00;18.97;;;9.93;;
3949;SDS011;53057;50.988;6.314;2023-02-03T16:57:26;20.57;;;9.77;;
3949;SDS011;53057;50.988;6.314;2023-02-03T16:59:53;29.63;;;10.87;;
3949;SDS011;53057;50.988;6.314;2023-02-03T17:02:20;20.63;;;10.97;;
3949;SDS011;53057;50.988;6.314;2023-02-03T17:04:47;18.13;;;10.33;;
3949;SDS011;53057;50.988;6.314;2023-02-03T17:07:14;27.67;;;15.17;;
3949;SDS011;53057;50.988;6.314;2023-02-03T17:09:40;32.43;;;14.30;;
3949;SDS011;53057;50.988;6.314;2023-02-03T17:12:07;28.20;;;12.90;;
3949;SDS011;53057;50.988;6.314;2023-02-03T17:14:33;30.00;;;14.33;;
3949;SDS011;53057;50.988;6.314;2023-02-03T17:17:00;24.67;;;13.23;;
3949;SDS011;53057;50.988;6.314;2023-02-03T17:19:27;32.97;;;17.90;;
3949;SDS011;53057;50.988;6.314;2023-02-03T17:21:53;48.77;;;28.57;;